Lanark, Texas
Current Conditions -  °F | °C
As of 3:53 PM on Tuesday 21 Oct 2014 (Local Time) from KTXK Reporting Station
Clear Clear  
Wind Chill: 80°   Ceiling: Unl
Heat Index: 81°   Visibility: 10mi
Dew Point: 59°   Wind: 7mph
Humidity: 48%   Direction: 360°N
Pressure: 30.04"   Gusts: NA
Location:  33.2185°N, 94.1365°W
Report Text: KTXK 212053Z 36006KT 10SM CLR 27/15 A3004 RMK AO2 SLP167 T02670150 56021
Loading
Personal Weather Stations






























Interactive Weather Map
Tropical Storm Tracking
New forecast layout! Learn more

10-Day Weather Forecast

Advertisements
Track Severe Weather on mobile